Time;durP1;ratioP1;P1;durP2;ratioP2;P2;SDS_P1;SDS_P2;PMS_P1;PMS_P2;Temp;Humidity;BMP_temperature;BMP_pressure;BME280_temperature;BME280_humidity;BME280_pressure;Samples;Min_cycle;Max_cycle;Signal;HPM_P1;HPM_P2
2021/01/24 00:02:00;;;;;;;2.67;2.10;;;6.70;1.00;;;;;;5037219;28;20068;-82
2021/01/24 00:04:26;;;;;;;3.20;2.05;;;6.60;1.00;;;;;;5035258;28;20036;-82
2021/01/24 00:06:51;;;;;;;3.92;2.13;;;6.50;1.00;;;;;;5035105;28;20105;-82
2021/01/24 00:09:17;;;;;;;3.05;2.10;;;6.80;1.00;;;;;;5040879;28;20096;-82
2021/01/24 00:11:43;;;;;;;5.38;2.85;;;6.50;1.00;;;;;;5040313;28;20017;-82
2021/01/24 00:14:09;;;;;;;7.10;3.38;;;6.40;1.00;;;;;;5041980;28;20028;-82
2021/01/24 00:16:34;;;;;;;4.40;2.35;;;6.50;1.00;;;;;;5055112;28;20079;-82
2021/01/24 00:19:00;;;;;;;4.65;2.42;;;6.90;1.00;;;;;;5055141;28;20063;-82
2021/01/24 00:21:25;;;;;;;3.72;2.10;;;6.40;1.00;;;;;;5042336;28;20029;-82
2021/01/24 00:23:51;;;;;;;4.10;2.10;;;6.60;1.00;;;;;;5036905;28;20430;-82
2021/01/24 00:26:17;;;;;;;3.05;1.45;;;6.40;1.00;;;;;;5035239;28;20030;-82
2021/01/24 00:28:42;;;;;;;3.25;1.73;;;6.40;1.00;;;;;;5044928;28;20021;-82
2021/01/24 00:31:08;;;;;;;2.58;1.60;;;6.70;1.00;;;;;;5043058;28;20021;-82
2021/01/24 00:33:33;;;;;;;3.28;1.88;;;6.40;1.00;;;;;;5038751;28;20063;-82
2021/01/24 00:35:59;;;;;;;3.42;1.63;;;6.80;1.00;;;;;;5042403;28;20025;-82
2021/01/24 00:38:25;;;;;;;3.03;1.48;;;6.60;1.00;;;;;;5036499;28;20009;-82
2021/01/24 00:40:51;;;;;;;3.42;1.70;;;6.30;1.00;;;;;;5034270;28;20434;-82
2021/01/24 00:43:16;;;;;;;1.92;1.40;;;6.60;1.00;;;;;;5033846;28;20030;-82
2021/01/24 00:45:42;;;;;;;2.40;1.67;;;6.60;1.00;;;;;;5043467;28;20029;-82
2021/01/24 00:48:08;;;;;;;3.00;1.73;;;6.60;1.00;;;;;;5036172;28;20022;-82
2021/01/24 00:50:34;;;;;;;2.40;1.48;;;6.30;1.00;;;;;;5045297;28;20486;-82
2021/01/24 00:52:59;;;;;;;1.98;1.63;;;6.80;1.00;;;;;;5054411;28;20082;-82
2021/01/24 00:55:25;;;;;;;3.00;1.60;;;6.30;1.00;;;;;;5045144;28;20033;-82
2021/01/24 00:57:51;;;;;;;2.92;1.70;;;6.20;1.00;;;;;;5033692;28;20017;-82
2021/01/24 01:00:17;;;;;;;2.50;1.92;;;6.30;1.00;;;;;;5033494;28;20103;-82
2021/01/24 01:02:43;;;;;;;3.75;1.60;;;6.20;1.00;;;;;;5035659;28;20420;-82
2021/01/24 01:05:09;;;;;;;2.53;1.83;;;6.10;1.00;;;;;;5035162;28;20067;-82
2021/01/24 01:07:35;;;;;;;3.47;2.42;;;6.10;1.00;;;;;;5034308;28;20104;-82
2021/01/24 01:10:00;;;;;;;2.28;1.70;;;6.60;1.00;;;;;;5033721;28;20108;-82
2021/01/24 01:12:26;;;;;;;4.10;2.13;;;5.90;1.00;;;;;;5033607;28;20394;-82
2021/01/24 01:14:52;;;;;;;4.80;2.83;;;6.50;1.00;;;;;;5048875;28;20446;-82
2021/01/24 01:17:17;;;;;;;4.35;3.20;;;6.30;1.00;;;;;;5053810;28;20067;-82
2021/01/24 01:19:43;;;;;;;6.10;3.45;;;6.60;1.00;;;;;;5040623;28;20033;-82
2021/01/24 01:22:09;;;;;;;4.40;2.67;;;6.40;1.00;;;;;;5038260;28;20087;-82
2021/01/24 01:24:35;;;;;;;5.25;2.50;;;6.20;1.00;;;;;;5033770;28;20025;-82
2021/01/24 01:27:01;;;;;;;3.50;1.60;;;6.40;1.00;;;;;;5036934;28;20021;-82
2021/01/24 01:29:26;;;;;;;4.20;2.30;;;6.10;1.00;;;;;;5047557;28;20112;-82
2021/01/24 01:31:52;;;;;;;6.55;2.83;;;5.80;1.00;;;;;;5033705;28;20446;-82
2021/01/24 01:34:18;;;;;;;6.57;2.60;;;5.70;1.00;;;;;;5037885;28;20025;-82
2021/01/24 01:36:43;;;;;;;3.05;2.08;;;5.80;1.00;;;;;;5053386;28;20029;-82
2021/01/24 01:39:09;;;;;;;5.53;2.53;;;6.30;1.00;;;;;;5037989;28;20494;-82
2021/01/24 01:41:35;;;;;;;3.10;1.80;;;5.70;1.00;;;;;;5037731;28;20502;-82
2021/01/24 01:44:02;;;;;;;3.47;2.20;;;5.60;1.00;;;;;;5040166;28;20052;-82
2021/01/24 01:46:28;;;;;;;4.32;2.60;;;5.60;1.00;;;;;;5039126;28;20022;-82
2021/01/24 01:48:55;;;;;;;4.78;2.72;;;5.50;1.00;;;;;;5033740;28;20021;-82
2021/01/24 01:51:21;;;;;;;6.00;3.75;;;5.50;1.00;;;;;;5033405;28;20048;-82
2021/01/24 01:53:47;;;;;;;4.22;2.60;;;5.40;1.00;;;;;;5032681;28;20029;-82
2021/01/24 01:56:13;;;;;;;5.22;3.03;;;5.40;1.00;;;;;;5032282;28;20387;-82
2021/01/24 01:58:40;;;;;;;4.20;2.80;;;5.40;1.00;;;;;;5036297;28;20132;-82
2021/01/24 02:01:15;;;;;;;5.05;2.92;;;5.40;1.00;;;;;;5031775;28;20025;-82
2021/01/24 02:04:17;;;;;;;4.13;2.50;;;5.80;1.00;;;;;;5033119;28;20021;-82
2021/01/24 02:06:59;;;;;;;5.47;2.92;;;5.40;1.00;;;;;;5032911;28;20399;-82
2021/01/24 02:09:37;;;;;;;4.63;2.60;;;5.80;1.00;;;;;;5033873;28;20014;-82
2021/01/24 02:12:15;;;;;;;4.68;2.97;;;5.50;1.00;;;;;;5033136;28;20050;-82
2021/01/24 02:14:50;;;;;;;5.38;2.70;;;5.50;1.00;;;;;;5032480;28;20509;-82
2021/01/24 02:17:18;;;;;;;3.92;2.58;;;5.40;1.00;;;;;;5033779;28;20072;-82
2021/01/24 02:20:00;;;;;;;6.25;2.95;;;5.70;1.00;;;;;;5033122;28;20025;-82
2021/01/24 02:22:30;;;;;;;3.95;2.97;;;5.50;1.00;;;;;;5032526;28;20028;-82
2021/01/24 02:25:08;;;;;;;4.10;2.28;;;5.20;1.00;;;;;;5033586;28;20022;-82
2021/01/24 02:27:40;;;;;;;4.20;2.28;;;5.30;1.00;;;;;;5033101;28;20025;-82
2021/01/24 02:30:23;;;;;;;3.70;1.88;;;5.30;1.00;;;;;;5028969;28;20072;-82
2021/01/24 02:32:54;;;;;;;3.97;2.03;;;5.30;1.00;;;;;;5032714;28;20483;-82
2021/01/24 02:35:24;;;;;;;3.28;1.70;;;5.30;1.00;;;;;;5035709;28;20029;-82
2021/01/24 02:37:51;;;;;;;3.45;1.80;;;5.40;1.00;;;;;;5040569;28;20048;-82
2021/01/24 02:40:17;;;;;;;3.08;1.98;;;5.20;1.00;;;;;;5036605;28;20030;-82
2021/01/24 02:42:44;;;;;;;2.58;1.90;;;5.10;1.00;;;;;;5046312;28;20095;-82
2021/01/24 02:45:10;;;;;;;4.05;1.80;;;5.10;1.00;;;;;;5040314;28;20028;-82
2021/01/24 02:47:38;;;;;;;2.92;1.60;;;5.10;1.00;;;;;;5045341;28;20078;-82
2021/01/24 02:50:34;;;;;;;2.42;1.30;;;5.20;1.00;;;;;;5039520;28;20028;-82
2021/01/24 02:53:01;;;;;;;2.90;1.10;;;5.20;1.00;;;;;;5036304;28;20079;-82
2021/01/24 02:55:27;;;;;;;2.67;1.40;;;5.40;1.00;;;;;;5038821;28;20025;-82
2021/01/24 02:57:55;;;;;;;1.83;1.10;;;5.40;1.00;;;;;;5050169;28;20025;-82
2021/01/24 03:00:21;;;;;;;2.88;1.25;;;5.40;1.00;;;;;;5036319;28;20050;-82
2021/01/24 03:02:48;;;;;;;5.25;1.40;;;5.30;1.00;;;;;;5036120;28;20084;-82
2021/01/24 03:05:14;;;;;;;2.45;1.13;;;5.70;1.00;;;;;;5036249;28;20034;-82
2021/01/24 03:07:41;;;;;;;1.92;1.20;;;5.50;1.00;;;;;;5036168;28;20021;-82
2021/01/24 03:10:07;;;;;;;1.95;1.33;;;5.60;1.00;;;;;;5036798;28;20025;-82
2021/01/24 03:12:38;;;;;;;2.33;1.48;;;5.10;1.00;;;;;;5049055;28;20070;-82
2021/01/24 03:15:04;;;;;;;2.13;1.27;;;5.00;1.00;;;;;;5045539;28;20025;-82
2021/01/24 03:17:35;;;;;;;1.92;1.10;;;4.80;1.00;;;;;;5047844;28;20021;-82
2021/01/24 03:20:03;;;;;;;1.85;1.35;;;4.70;1.00;;;;;;5054930;28;20099;-82
2021/01/24 03:22:29;;;;;;;2.30;1.40;;;4.70;1.00;;;;;;5035895;28;20061;-82
2021/01/24 03:24:56;;;;;;;1.40;1.15;;;4.80;1.00;;;;;;5046630;28;20056;-82
2021/01/24 03:27:22;;;;;;;2.95;1.45;;;4.60;1.00;;;;;;5055068;28;20017;-82
2021/01/24 03:29:48;;;;;;;2.00;1.30;;;4.90;1.00;;;;;;5049327;28;20055;-82
2021/01/24 03:32:13;;;;;;;1.63;1.20;;;5.00;1.00;;;;;;5051117;28;20102;-82
2021/01/24 03:34:39;;;;;;;2.17;1.50;;;5.00;1.00;;;;;;5044607;28;20032;-82
2021/01/24 03:37:05;;;;;;;1.30;1.20;;;4.40;1.00;;;;;;5035412;28;20032;-82
2021/01/24 03:39:30;;;;;;;2.95;1.70;;;5.00;1.00;;;;;;5035773;28;20033;-82
2021/01/24 03:41:56;;;;;;;3.45;1.20;;;5.00;1.00;;;;;;5045944;28;20208;-81
2021/01/24 03:44:21;;;;;;;2.13;1.23;;;4.40;1.00;;;;;;5049669;28;20041;-82
2021/01/24 03:46:47;;;;;;;2.00;1.05;;;4.90;1.00;;;;;;5035152;28;20030;-82
2021/01/24 03:49:13;;;;;;;2.80;1.10;;;4.30;1.00;;;;;;5036335;28;20360;-82
2021/01/24 03:51:38;;;;;;;2.05;1.25;;;4.50;1.00;;;;;;5037026;28;20032;-82
2021/01/24 03:54:04;;;;;;;3.17;1.20;;;4.70;1.00;;;;;;5038199;28;20105;-82
2021/01/24 03:56:30;;;;;;;1.50;0.82;;;4.10;1.00;;;;;;5042113;28;20544;-81
2021/01/24 03:58:55;;;;;;;2.35;1.17;;;4.60;1.00;;;;;;5047165;28;20046;-82
2021/01/24 04:01:21;;;;;;;3.60;1.13;;;4.20;1.00;;;;;;5035070;28;20395;-82
2021/01/24 04:03:46;;;;;;;1.90;1.10;;;4.50;1.00;;;;;;5041340;28;20116;-82
2021/01/24 04:06:12;;;;;;;2.47;1.20;;;4.00;1.00;;;;;;5034957;28;20021;-82
2021/01/24 04:08:38;;;;;;;1.63;1.15;;;4.00;1.00;;;;;;5035375;28;20026;-82
2021/01/24 04:11:03;;;;;;;1.40;1.05;;;4.70;1.00;;;;;;5039209;28;20025;-82
2021/01/24 04:13:29;;;;;;;2.13;0.90;;;4.50;1.00;;;;;;5034740;28;20025;-82
2021/01/24 04:15:54;;;;;;;1.73;1.30;;;4.50;1.00;;;;;;5034934;28;20479;-82
2021/01/24 04:18:20;;;;;;;1.45;1.00;;;4.60;1.00;;;;;;5035680;28;20510;-82
2021/01/24 04:20:46;;;;;;;1.67;1.10;;;4.40;1.00;;;;;;5050738;28;20036;-82
2021/01/24 04:23:12;;;;;;;2.58;1.23;;;4.50;1.00;;;;;;5035006;28;20037;-82
2021/01/24 04:25:37;;;;;;;1.38;1.05;;;4.60;1.00;;;;;;5034591;28;20426;-82
2021/01/24 04:28:03;;;;;;;1.92;1.10;;;4.40;1.00;;;;;;5046797;28;20030;-82
2021/01/24 04:30:29;;;;;;;1.85;0.90;;;4.00;1.00;;;;;;5034244;28;20018;-82
2021/01/24 04:32:55;;;;;;;2.65;1.20;;;4.30;1.00;;;;;;5034963;28;20025;-82
2021/01/24 04:35:22;;;;;;;3.33;1.10;;;4.70;1.00;;;;;;5038179;28;20025;-82
2021/01/24 04:37:48;;;;;;;1.75;1.35;;;4.10;1.00;;;;;;5044058;28;20032;-82
2021/01/24 04:40:13;;;;;;;3.53;1.10;;;4.50;1.00;;;;;;5054955;28;20029;-82
2021/01/24 04:42:39;;;;;;;1.65;1.10;;;4.00;1.00;;;;;;5048864;28;20479;-82
2021/01/24 04:45:08;;;;;;;2.00;1.20;;;4.60;1.00;;;;;;5054679;28;20448;-82
2021/01/24 04:47:37;;;;;;;2.95;1.30;;;4.00;1.00;;;;;;5036431;28;20108;-82
2021/01/24 04:50:03;;;;;;;1.63;1.10;;;4.50;1.00;;;;;;5040513;28;20509;-82
2021/01/24 04:52:29;;;;;;;3.90;1.45;;;4.00;1.00;;;;;;5048335;28;20017;-82
2021/01/24 04:54:56;;;;;;;1.75;1.20;;;4.50;1.00;;;;;;5046309;28;20025;-82
2021/01/24 04:57:24;;;;;;;2.22;1.58;;;4.50;1.00;;;;;;5037708;28;20069;-82
2021/01/24 04:59:49;;;;;;;1.55;1.10;;;3.90;1.00;;;;;;5037890;28;20050;-82
2021/01/24 05:02:15;;;;;;;1.30;1.10;;;4.40;1.00;;;;;;5035456;28;20032;-82
2021/01/24 05:04:41;;;;;;;1.75;1.08;;;4.30;1.00;;;;;;5050067;28;20399;-82
2021/01/24 05:07:06;;;;;;;1.63;1.40;;;4.40;1.00;;;;;;5038815;28;20030;-82
2021/01/24 05:09:33;;;;;;;1.40;1.10;;;3.80;1.00;;;;;;5051716;28;20025;-83
2021/01/24 05:11:59;;;;;;;1.65;1.20;;;4.20;1.00;;;;;;5041575;28;20014;-82
2021/01/24 05:14:25;;;;;;;1.88;1.13;;;4.20;1.00;;;;;;5033684;28;20079;-82
2021/01/24 05:16:52;;;;;;;1.50;1.10;;;4.10;1.00;;;;;;5033953;28;20112;-82
2021/01/24 05:19:20;;;;;;;1.75;1.20;;;4.20;1.00;;;;;;5046471;28;20025;-82
2021/01/24 05:21:46;;;;;;;1.10;1.00;;;3.90;1.00;;;;;;5043855;28;20028;-82
2021/01/24 05:24:15;;;;;;;1.63;1.20;;;3.40;1.00;;;;;;5053738;28;20479;-82
2021/01/24 05:26:45;;;;;;;1.70;1.17;;;3.30;1.00;;;;;;5036293;28;20029;-82
2021/01/24 05:29:24;;;;;;;1.55;1.38;;;4.00;1.00;;;;;;5034053;28;20025;-82
2021/01/24 05:31:52;;;;;;;2.97;1.92;;;3.20;1.00;;;;;;5041159;28;20437;-82
2021/01/24 05:34:25;;;;;;;2.17;1.65;;;3.70;1.00;;;;;;5034021;28;20022;-82
2021/01/24 05:36:52;;;;;;;3.22;1.70;;;3.10;1.00;;;;;;5033644;28;20656;-82
2021/01/24 05:39:18;;;;;;;2.53;1.40;;;2.90;1.00;;;;;;5043015;28;20033;-82
2021/01/24 05:41:52;;;;;;;1.83;1.20;;;3.40;1.00;;;;;;5047559;28;20079;-82
2021/01/24 05:44:19;;;;;;;1.88;1.35;;;2.90;1.00;;;;;;5033292;28;20457;-82
2021/01/24 05:46:45;;;;;;;1.77;1.30;;;2.80;1.00;;;;;;5033194;28;20022;-82
2021/01/24 05:49:14;;;;;;;1.70;1.30;;;2.70;1.00;;;;;;5036123;28;20028;-82
2021/01/24 05:51:40;;;;;;;2.65;1.33;;;2.70;1.00;;;;;;5040418;28;20509;-83
2021/01/24 05:54:05;;;;;;;1.55;1.27;;;3.20;1.00;;;;;;5039929;28;20025;-83
2021/01/24 05:56:31;;;;;;;1.58;1.48;;;2.70;1.00;;;;;;5027556;28;20109;-83
2021/01/24 05:58:59;;;;;;;3.30;1.60;;;2.70;1.00;;;;;;5051498;28;20067;-83
2021/01/24 06:01:26;;;;;;;2.25;1.40;;;3.10;1.00;;;;;;5032736;28;20045;-83
2021/01/24 06:03:56;;;;;;;1.83;1.40;;;2.50;1.00;;;;;;5032864;28;20021;-83
2021/01/24 06:06:22;;;;;;;2.55;1.77;;;2.50;1.00;;;;;;5032772;28;20021;-83
2021/01/24 06:08:49;;;;;;;3.05;1.85;;;2.50;1.00;;;;;;5030961;28;20021;-83
2021/01/24 06:11:16;;;;;;;2.13;1.60;;;2.80;1.00;;;;;;5036240;28;20030;-83
2021/01/24 06:13:45;;;;;;;3.33;1.67;;;2.50;1.00;;;;;;5031178;28;20026;-83
2021/01/24 06:16:17;;;;;;;2.72;2.00;;;2.40;1.00;;;;;;5031984;28;20017;-83
2021/01/24 06:18:52;;;;;;;1.95;1.55;;;2.40;1.00;;;;;;5032484;28;20118;-83
2021/01/24 06:21:24;;;;;;;2.42;1.75;;;2.40;1.00;;;;;;5032294;28;20175;-83
2021/01/24 06:24:04;;;;;;;2.17;1.90;;;2.40;1.00;;;;;;5043318;28;20025;-83
2021/01/24 06:26:30;;;;;;;2.65;1.98;;;2.30;1.00;;;;;;5031935;28;20497;-83
2021/01/24 06:29:04;;;;;;;3.60;2.00;;;2.30;1.00;;;;;;5032175;28;20025;-83
2021/01/24 06:31:30;;;;;;;3.85;2.80;;;2.80;1.00;;;;;;5042722;28;20041;-83
2021/01/24 06:34:04;;;;;;;6.10;3.78;;;2.20;1.00;;;;;;5032407;28;20052;-83
2021/01/24 06:36:30;;;;;;;4.18;3.78;;;2.30;1.00;;;;;;5049632;28;20028;-83
2021/01/24 06:38:56;;;;;;;7.88;7.18;;;2.30;1.00;;;;;;5036703;28;20031;-84
2021/01/24 06:41:49;;;;;;;2.60;2.35;;;2.30;1.00;;;;;;5045645;28;20017;-84
2021/01/24 06:44:37;;;;;;;2.42;1.98;;;2.30;1.00;;;;;;5032286;28;20485;-83
2021/01/24 06:47:27;;;;;;;2.88;1.67;;;2.30;1.00;;;;;;5035403;28;20558;-83
2021/01/24 06:49:53;;;;;;;1.60;1.45;;;2.30;1.00;;;;;;5008304;28;20034;-83
2021/01/24 06:52:22;;;;;;;3.15;1.85;;;3.00;1.00;;;;;;5025414;28;20043;-83
2021/01/24 06:54:50;;;;;;;3.42;1.80;;;2.30;1.00;;;;;;5044581;28;20075;-83
2021/01/24 06:57:19;;;;;;;2.88;2.00;;;2.30;1.00;;;;;;5051861;28;20051;-83
2021/01/24 06:59:44;;;;;;;2.03;1.80;;;2.20;1.00;;;;;;5039020;28;20052;-83
2021/01/24 07:02:19;;;;;;;3.95;2.33;;;2.70;1.00;;;;;;5031644;28;20030;-83
2021/01/24 07:05:07;;;;;;;2.83;2.10;;;2.20;1.00;;;;;;5036837;28;20103;-83
2021/01/24 07:07:38;;;;;;;3.83;2.25;;;2.10;1.00;;;;;;5031527;28;20022;-83
2021/01/24 07:10:06;;;;;;;3.40;1.90;;;2.10;1.00;;;;;;5046401;28;20079;-83
2021/01/24 07:12:37;;;;;;;2.45;2.05;;;2.20;1.00;;;;;;5031684;28;20031;-83
2021/01/24 07:15:06;;;;;;;3.63;2.08;;;2.20;1.00;;;;;;5031561;28;20025;-83
2021/01/24 07:17:32;;;;;;;1.83;1.65;;;2.20;1.00;;;;;;5031870;28;20040;-83
2021/01/24 07:19:58;;;;;;;4.00;1.70;;;2.20;1.00;;;;;;5031901;28;20539;-83
2021/01/24 07:22:25;;;;;;;2.53;1.73;;;2.10;1.00;;;;;;5046341;28;20025;-83
2021/01/24 07:24:53;;;;;;;2.92;2.08;;;2.20;1.00;;;;;;5052828;28;20703;-83
2021/01/24 07:27:37;;;;;;;4.40;2.33;;;2.20;1.00;;;;;;5055297;28;20546;-83
2021/01/24 07:30:06;;;;;;;4.25;2.50;;;2.20;1.00;;;;;;5034705;28;20032;-83
2021/01/24 07:32:31;;;;;;;3.15;2.38;;;2.20;1.00;;;;;;5034433;28;20052;-83
2021/01/24 07:34:57;;;;;;;4.45;2.58;;;2.90;1.00;;;;;;5035175;28;20021;-84
2021/01/24 07:37:23;;;;;;;3.63;2.47;;;2.30;1.00;;;;;;5035284;28;20036;-84
2021/01/24 07:39:51;;;;;;;4.78;2.58;;;2.30;1.00;;;;;;5040993;28;20029;-83
2021/01/24 07:42:18;;;;;;;5.57;2.80;;;2.40;1.00;;;;;;5036432;28;20399;-83
2021/01/24 07:44:44;;;;;;;3.58;2.30;;;2.40;1.00;;;;;;5034921;28;20471;-82
2021/01/24 07:47:11;;;;;;;3.28;2.20;;;2.50;1.00;;;;;;5035049;28;20014;-83
2021/01/24 07:49:38;;;;;;;4.45;2.00;;;3.10;1.00;;;;;;5035068;28;20064;-82
2021/01/24 07:52:04;;;;;;;4.03;1.75;;;3.20;1.00;;;;;;5039787;28;20024;-82
2021/01/24 07:54:31;;;;;;;3.55;1.88;;;2.70;1.00;;;;;;5034284;28;20117;-82
2021/01/24 07:56:57;;;;;;;2.55;1.77;;;2.80;1.00;;;;;;5034338;28;20041;-82
2021/01/24 07:59:24;;;;;;;4.50;2.50;;;2.70;1.00;;;;;;5034411;28;20442;-82
2021/01/24 08:01:52;;;;;;;3.67;1.92;;;2.90;1.00;;;;;;5033169;28;20403;-82
2021/01/24 08:04:22;;;;;;;2.00;1.60;;;3.60;1.00;;;;;;5034794;28;20026;-82
2021/01/24 08:06:49;;;;;;;3.13;2.08;;;2.90;1.00;;;;;;5034529;28;20026;-82
2021/01/24 08:09:16;;;;;;;2.20;1.70;;;3.00;1.00;;;;;;5040295;28;20024;-82
2021/01/24 08:11:42;;;;;;;2.83;2.00;;;3.10;1.00;;;;;;5054587;28;20021;-82
2021/01/24 08:14:08;;;;;;;4.70;2.00;;;3.20;1.00;;;;;;5053917;28;20039;-82
2021/01/24 08:16:47;;;;;;;4.18;2.30;;;3.70;1.00;;;;;;5054600;28;20017;-82
2021/01/24 08:19:17;;;;;;;2.40;2.08;;;4.10;1.00;;;;;;5054422;28;20025;-82
2021/01/24 08:21:44;;;;;;;3.30;2.10;;;4.90;1.00;;;;;;5054565;28;20032;-82
2021/01/24 08:24:10;;;;;;;2.63;1.90;;;6.90;1.00;;;;;;5053491;28;20100;-82
2021/01/24 08:26:37;;;;;;;2.28;1.60;;;9.70;99.90;;;;;;5053795;28;20025;-82
2021/01/24 08:29:04;;;;;;;1.88;1.40;;;11.50;99.90;;;;;;5054220;28;20021;-82
2021/01/24 08:31:29;;;;;;;2.00;1.50;;;13.00;99.90;;;;;;5054080;28;20070;-83
2021/01/24 08:33:56;;;;;;;1.60;1.35;;;15.30;99.90;;;;;;5054224;28;20032;-83
2021/01/24 08:36:24;;;;;;;2.45;1.58;;;16.30;99.90;;;;;;5054033;28;20021;-82
2021/01/24 08:38:55;;;;;;;2.00;1.50;;;16.90;99.90;;;;;;5044285;28;20021;-82
2021/01/24 08:41:29;;;;;;;1.85;1.30;;;18.40;99.90;;;;;;5033790;28;20036;-82
2021/01/24 08:44:21;;;;;;;1.48;1.33;;;17.20;99.90;;;;;;5033926;28;20498;-82
2021/01/24 08:46:49;;;;;;;2.00;1.80;;;17.50;99.90;;;;;;5032760;28;20124;-82
2021/01/24 08:49:26;;;;;;;2.33;2.03;;;18.80;99.90;;;;;;5033719;28;20021;-82
2021/01/24 08:52:03;;;;;;;1.65;1.30;;;19.80;99.90;;;;;;5033831;28;20029;-82
2021/01/24 08:54:30;;;;;;;2.17;1.70;;;19.40;99.90;;;;;;5033221;28;20018;-82
2021/01/24 08:57:16;;;;;;;1.95;1.77;;;18.60;99.90;;;;;;5033370;28;20502;-82
2021/01/24 08:59:51;;;;;;;4.28;1.48;;;20.20;99.90;;;;;;5033463;28;20045;-82
2021/01/24 09:02:47;;;;;;;1.40;1.30;;;21.10;99.90;;;;;;5033262;28;20029;-82
2021/01/24 09:05:30;;;;;;;2.22;1.60;;;20.20;99.90;;;;;;5028764;28;20064;-82
2021/01/24 09:07:55;;;;;;;1.95;1.38;;;20.90;99.90;;;;;;5036905;28;20056;-82
2021/01/24 09:10:24;;;;;;;1.65;1.40;;;21.10;99.90;;;;;;5053010;28;20048;-82
2021/01/24 09:12:57;;;;;;;4.20;2.95;;;21.30;99.90;;;;;;5047355;28;20021;-82
2021/01/24 09:15:24;;;;;;;2.55;2.17;;;21.80;99.90;;;;;;5053266;28;20489;-82
2021/01/24 09:17:52;;;;;;;2.92;2.50;;;20.50;99.90;;;;;;5053295;28;20048;-82
2021/01/24 09:20:20;;;;;;;2.03;1.70;;;20.60;99.90;;;;;;5053168;28;20021;-82
2021/01/24 09:22:46;;;;;;;3.45;2.60;;;20.40;99.90;;;;;;5052285;28;20025;-82
2021/01/24 09:25:12;;;;;;;2.05;1.85;;;21.80;99.90;;;;;;5052757;28;20469;-82
2021/01/24 09:27:38;;;;;;;2.58;2.25;;;22.10;99.90;;;;;;5052984;28;20060;-82
2021/01/24 09:30:06;;;;;;;4.13;2.80;;;23.00;99.90;;;;;;5052856;28;20111;-82
2021/01/24 09:32:31;;;;;;;3.70;1.70;;;23.50;99.90;;;;;;5053074;28;20025;-82
2021/01/24 09:34:57;;;;;;;1.65;1.55;;;23.20;99.90;;;;;;5053023;28;20498;-82
2021/01/24 09:37:23;;;;;;;2.42;1.33;;;23.40;99.90;;;;;;5052365;28;20506;-82
2021/01/24 09:39:49;;;;;;;2.17;1.80;;;24.50;99.90;;;;;;5052557;28;20029;-83
2021/01/24 09:42:14;;;;;;;1.92;1.60;;;25.50;99.90;;;;;;5052731;28;20029;-83
2021/01/24 09:44:40;;;;;;;4.30;2.22;;;23.60;99.90;;;;;;5052388;28;20122;-83
2021/01/24 09:47:06;;;;;;;1.92;1.70;;;23.70;99.90;;;;;;5052620;28;20441;-82
2021/01/24 09:49:31;;;;;;;2.20;2.00;;;24.90;99.90;;;;;;5051771;28;20395;-83
2021/01/24 09:51:57;;;;;;;3.15;2.40;;;25.30;99.90;;;;;;5052754;28;20036;-83
2021/01/24 09:54:23;;;;;;;3.17;1.92;;;24.40;99.90;;;;;;5030473;28;20025;-83
2021/01/24 09:56:48;;;;;;;3.95;2.13;;;24.50;99.90;;;;;;5032258;28;20071;-82
2021/01/24 09:59:15;;;;;;;3.38;2.30;;;25.00;99.90;;;;;;5032397;28;20522;-83
2021/01/24 10:01:41;;;;;;;3.17;2.25;;;26.00;99.90;;;;;;5046459;28;20482;-83
2021/01/24 10:04:07;;;;;;;1.70;1.50;;;25.10;99.90;;;;;;5032263;28;20079;-83
2021/01/24 10:06:33;;;;;;;1.90;1.70;;;25.30;99.90;;;;;;5032461;28;20053;-82
2021/01/24 10:09:00;;;;;;;4.85;2.03;;;28.00;99.90;;;;;;5031939;28;20025;-83
2021/01/24 10:11:26;;;;;;;1.65;1.55;;;27.20;99.90;;;;;;5032243;28;20021;-83
2021/01/24 10:13:51;;;;;;;2.85;2.63;;;21.00;99.90;;;;;;5041266;28;20371;-83
2021/01/24 10:16:17;;;;;;;1.70;1.60;;;25.80;99.90;;;;;;5040400;28;20059;-83
2021/01/24 10:18:43;;;;;;;2.35;1.90;;;26.60;99.90;;;;;;5032379;28;20048;-82
2021/01/24 10:21:09;;;;;;;3.40;1.65;;;23.10;99.90;;;;;;5033287;28;20036;-83
2021/01/24 10:23:35;;;;;;;2.10;1.90;;;23.90;99.90;;;;;;5031870;28;20033;-82
2021/01/24 10:26:01;;;;;;;2.40;1.90;;;25.80;99.90;;;;;;5032239;28;20104;-82
2021/01/24 10:28:27;;;;;;;4.50;2.40;;;23.70;99.90;;;;;;5046354;28;20036;-83
2021/01/24 10:30:53;;;;;;;3.35;2.40;;;24.50;99.90;;;;;;5032337;28;20017;-83
2021/01/24 10:33:19;;;;;;;1.85;1.75;;;25.80;99.90;;;;;;5046031;28;20021;-82
2021/01/24 10:35:45;;;;;;;1.83;1.73;;;27.20;99.90;;;;;;5042008;28;20471;-83
2021/01/24 10:38:13;;;;;;;3.10;2.08;;;27.20;99.90;;;;;;5051714;28;20048;-82
2021/01/24 10:40:38;;;;;;;1.75;1.65;;;27.80;99.90;;;;;;5052922;28;20032;-83
2021/01/24 10:43:05;;;;;;;2.30;2.10;;;27.40;99.90;;;;;;5051975;28;20021;-84
2021/01/24 10:45:31;;;;;;;3.70;1.65;;;27.60;99.90;;;;;;5041756;28;20120;-83
2021/01/24 10:47:58;;;;;;;1.50;1.35;;;27.00;99.90;;;;;;5013071;28;20038;-83
2021/01/24 10:50:25;;;;;;;2.55;1.60;;;26.00;99.90;;;;;;5013060;28;20053;-83
2021/01/24 10:52:50;;;;;;;1.80;1.40;;;19.40;99.90;;;;;;5012939;28;20026;-83
2021/01/24 10:55:16;;;;;;;2.33;2.10;;;19.50;99.90;;;;;;5013283;28;20041;-83
2021/01/24 10:57:42;;;;;;;1.80;1.70;;;21.00;99.90;;;;;;5021639;28;20395;-82
2021/01/24 11:00:08;;;;;;;2.40;1.80;;;20.20;99.90;;;;;;5043834;28;20049;-82
2021/01/24 11:02:38;;;;;;;1.90;1.70;;;20.90;99.90;;;;;;5040402;28;20034;-83
2021/01/24 11:05:06;;;;;;;4.82;1.85;;;19.70;99.90;;;;;;5036276;28;20117;-84
2021/01/24 11:07:31;;;;;;;1.60;1.40;;;15.80;99.90;;;;;;5035615;28;20510;-84
2021/01/24 11:09:57;;;;;;;2.92;1.90;;;15.90;99.90;;;;;;5036236;28;20030;-84
2021/01/24 11:12:23;;;;;;;1.88;1.75;;;14.10;99.90;;;;;;5041933;28;20093;-82
2021/01/24 11:14:49;;;;;;;7.32;5.88;;;13.50;99.90;;;;;;5039835;28;20084;-83
2021/01/24 11:17:15;;;;;;;5.47;4.03;;;18.40;99.90;;;;;;5035144;28;20021;-83
2021/01/24 11:19:40;;;;;;;3.42;3.08;;;16.70;99.90;;;;;;5034294;28;20063;-83
2021/01/24 11:22:06;;;;;;;4.40;2.90;;;13.50;99.90;;;;;;5035853;28;20029;-82
2021/01/24 11:24:31;;;;;;;5.22;3.83;;;12.00;99.90;;;;;;5035612;28;20087;-83
2021/01/24 11:26:58;;;;;;;3.53;2.90;;;11.30;99.90;;;;;;5035718;28;20085;-83
2021/01/24 11:29:24;;;;;;;4.22;3.05;;;11.10;99.90;;;;;;5035880;28;20053;-83
2021/01/24 11:31:51;;;;;;;6.72;3.88;;;12.40;99.90;;;;;;5035943;28;20502;-84
2021/01/24 11:34:17;;;;;;;2.80;2.15;;;12.20;99.90;;;;;;5035227;28;20049;-82
2021/01/24 11:36:43;;;;;;;5.88;3.65;;;15.80;99.90;;;;;;5040462;28;20017;-82
2021/01/24 11:39:09;;;;;;;2.72;1.52;;;19.00;99.90;;;;;;5045018;28;20075;-83
2021/01/24 11:41:34;;;;;;;2.35;2.00;;;19.10;99.90;;;;;;5035635;28;20021;-83
2021/01/24 11:44:00;;;;;;;2.35;1.67;;;19.50;99.90;;;;;;5037437;28;20029;-83
2021/01/24 11:46:26;;;;;;;1.80;1.40;;;23.90;99.90;;;;;;5035569;28;20544;-83
2021/01/24 11:48:51;;;;;;;1.70;1.50;;;26.60;99.90;;;;;;5035831;28;20040;-83
2021/01/24 11:51:17;;;;;;;2.83;1.40;;;25.00;99.90;;;;;;5035083;28;20018;-83
2021/01/24 11:53:43;;;;;;;3.20;2.45;;;19.50;99.90;;;;;;5041591;28;20026;-83
2021/01/24 11:56:09;;;;;;;1.83;1.58;;;18.40;99.90;;;;;;5055330;28;20099;-83
2021/01/24 11:58:34;;;;;;;2.38;1.77;;;22.40;99.90;;;;;;5055283;28;20056;-83
2021/01/24 12:01:00;;;;;;;2.35;1.80;;;24.60;99.90;;;;;;5055086;28;20483;-83
2021/01/24 12:03:26;;;;;;;4.13;2.40;;;26.20;99.90;;;;;;5041919;28;20032;-83
2021/01/24 12:05:52;;;;;;;1.55;1.42;;;26.60;99.90;;;;;;5037304;28;20021;-83
2021/01/24 12:08:17;;;;;;;2.25;1.40;;;26.10;99.90;;;;;;5034882;28;20034;-83
2021/01/24 12:10:43;;;;;;;2.25;1.55;;;25.90;99.90;;;;;;5035156;28;20036;-83
2021/01/24 12:13:09;;;;;;;1.27;1.17;;;25.80;99.90;;;;;;5035140;28;20034;-83
2021/01/24 12:15:34;;;;;;;1.60;1.27;;;24.70;99.90;;;;;;5035134;28;20032;-83
2021/01/24 12:18:00;;;;;;;3.47;1.67;;;22.30;99.90;;;;;;5035010;28;20064;-85
2021/01/24 12:20:26;;;;;;;1.42;1.33;;;24.50;99.90;;;;;;5040062;28;20032;-87
2021/01/24 12:22:51;;;;;;;1.77;1.50;;;22.00;99.90;;;;;;5035852;28;20033;-84
2021/01/24 12:25:18;;;;;;;1.92;1.40;;;22.20;99.90;;;;;;5048630;28;20049;-84
2021/01/24 12:27:43;;;;;;;1.70;1.60;;;24.10;99.90;;;;;;5050770;28;20036;-88
2021/01/24 12:30:09;;;;;;;1.75;1.30;;;24.60;99.90;;;;;;5033477;28;20014;-86
2021/01/24 12:32:35;;;;;;;1.65;1.50;;;26.00;99.90;;;;;;5034711;28;20025;-84
2021/01/24 12:35:01;;;;;;;3.50;1.65;;;26.60;99.90;;;;;;5034256;28;20502;-84
2021/01/24 12:37:26;;;;;;;2.30;1.55;;;27.10;99.90;;;;;;5043228;28;20044;-83
2021/01/24 12:39:52;;;;;;;1.92;1.40;;;26.10;99.90;;;;;;5038643;28;20025;-83
2021/01/24 12:42:18;;;;;;;1.60;1.50;;;25.00;99.90;;;;;;5034738;28;20033;-88
2021/01/24 12:44:44;;;;;;;1.67;1.58;;;24.90;99.90;;;;;;5034509;28;20021;-85
2021/01/24 12:47:10;;;;;;;1.48;1.30;;;25.50;99.90;;;;;;5032828;28;20403;-86
2021/01/24 12:49:37;;;;;;;1.75;1.65;;;24.90;99.90;;;;;;5033896;28;20022;-85
2021/01/24 12:52:03;;;;;;;1.63;1.52;;;26.00;99.90;;;;;;5034524;28;20048;-85
2021/01/24 12:54:29;;;;;;;1.77;1.40;;;25.40;99.90;;;;;;5046257;28;20068;-86
2021/01/24 12:56:55;;;;;;;1.50;1.40;;;25.20;99.90;;;;;;5022509;28;20030;-86
2021/01/24 12:59:20;;;;;;;2.22;1.83;;;25.90;99.90;;;;;;5020280;28;20442;-86
2021/01/24 13:01:46;;;;;;;1.40;1.30;;;25.20;99.90;;;;;;5038250;28;20112;-87
2021/01/24 13:04:11;;;;;;;3.17;1.50;;;25.30;99.90;;;;;;5032902;28;20017;-86